createdAt,value
2018-05-15T00:00:25.191Z,15.98
2018-05-15T00:01:35.388Z,16.01
2018-05-15T00:02:46.551Z,15.98
2018-05-15T00:03:56.773Z,15.94
2018-05-15T00:05:07.055Z,15.96
2018-05-15T00:06:17.273Z,15.8
2018-05-15T00:07:27.098Z,15.88
2018-05-15T00:08:37.225Z,15.91
2018-05-15T00:09:47.124Z,15.8
2018-05-15T00:10:57.267Z,15.82
2018-05-15T00:12:07.424Z,15.8
2018-05-15T00:13:17.566Z,15.88
2018-05-15T00:14:27.793Z,15.88
2018-05-15T00:15:38.004Z,15.87
2018-05-15T00:16:48.212Z,15.78
2018-05-15T00:17:58.380Z,15.78
2018-05-15T00:19:08.182Z,15.8
2018-05-15T00:20:18.073Z,15.88
2018-05-15T00:21:28.250Z,15.75
2018-05-15T00:22:38.152Z,15.76
2018-05-15T00:24:20.181Z,15.73
2018-05-15T00:25:30.459Z,15.75
2018-05-15T00:26:40.691Z,15.7
2018-05-15T00:27:50.859Z,15.68
2018-05-15T00:29:00.991Z,15.64
2018-05-15T00:30:11.167Z,15.68
2018-05-15T00:31:22.535Z,15.7
2018-05-15T00:32:32.786Z,15.73
2018-05-15T00:33:42.904Z,15.66
2018-05-15T00:34:52.845Z,15.57
2018-05-15T00:36:03.021Z,15.46
2018-05-15T00:37:13.311Z,15.45
2018-05-15T00:38:23.466Z,15.42
2018-05-15T00:39:33.770Z,15.36
2018-05-15T00:40:43.951Z,15.35
2018-05-15T00:41:54.100Z,15.27
2018-05-15T00:43:04.310Z,15.3
2018-05-15T00:44:14.323Z,15.29
2018-05-15T00:45:24.809Z,15.21
2018-05-15T00:46:35.030Z,15.29
2018-05-15T00:47:45.225Z,15.2
2018-05-15T00:48:55.524Z,15.21
2018-05-15T00:50:05.512Z,15.33
2018-05-15T00:51:15.636Z,15.23
2018-05-15T00:52:25.762Z,15.24
2018-05-15T00:53:35.894Z,15.25
2018-05-15T00:54:46.090Z,15.27
2018-05-15T00:55:56.272Z,15.21
2018-05-15T00:57:06.418Z,15.13
2018-05-15T00:58:16.645Z,15.14
2018-05-15T00:59:26.842Z,15.11
2018-05-15T01:00:36.992Z,15.09
2018-05-15T01:01:47.127Z,15.06
2018-05-15T01:02:57.276Z,15
2018-05-15T01:04:07.074Z,14.96
2018-05-15T01:05:17.220Z,14.98
2018-05-15T01:06:27.353Z,14.87
2018-05-15T01:07:37.495Z,14.83
2018-05-15T01:08:47.631Z,14.78
2018-05-15T01:09:57.822Z,14.74
2018-05-15T01:11:07.952Z,14.67
2018-05-15T01:12:18.114Z,14.65
2018-05-15T01:13:28.243Z,14.66
2018-05-15T01:14:38.414Z,14.59
2018-05-15T01:15:48.544Z,14.51
2018-05-15T01:16:58.705Z,14.36
2018-05-15T01:18:09.079Z,14.34
2018-05-15T01:19:19.336Z,14.37
2018-05-15T01:20:29.230Z,14.21
2018-05-15T01:21:39.019Z,14.26
2018-05-15T01:22:48.783Z,14.29
2018-05-15T01:23:58.907Z,14.24
2018-05-15T01:25:09.047Z,14.21
2018-05-15T01:26:19.010Z,14.18
2018-05-15T01:27:29.157Z,14.14
2018-05-15T01:28:39.289Z,14.09
2018-05-15T01:29:49.420Z,14.18
2018-05-15T01:30:59.684Z,13.96
2018-05-15T01:32:09.836Z,14.02
2018-05-15T01:33:20.133Z,14.03
2018-05-15T01:34:29.636Z,13.92
2018-05-15T01:35:39.771Z,13.99
2018-05-15T01:36:50.126Z,13.96
2018-05-15T01:38:00.297Z,13.88
2018-05-15T01:39:10.550Z,13.84
2018-05-15T01:40:20.464Z,13.82
2018-05-15T01:41:30.616Z,13.82
2018-05-15T01:42:40.776Z,13.77
2018-05-15T01:43:50.919Z,13.76
2018-05-15T01:45:01.087Z,13.69
2018-05-15T01:46:11.229Z,13.73
2018-05-15T01:47:21.399Z,13.67
2018-05-15T01:48:31.539Z,13.67
2018-05-15T01:49:41.676Z,13.63
2018-05-15T01:50:51.895Z,13.59
2018-05-15T01:52:02.018Z,13.61
2018-05-15T01:53:11.945Z,13.56
2018-05-15T01:54:22.124Z,13.64
2018-05-15T01:55:31.996Z,13.64
2018-05-15T01:56:42.158Z,13.66
2018-05-15T01:57:52.316Z,13.63
2018-05-15T01:59:02.474Z,13.55
2018-05-15T02:00:12.636Z,13.58
2018-05-15T02:01:22.824Z,13.52
2018-05-15T02:02:32.998Z,13.51
2018-05-15T02:03:43.153Z,13.51
2018-05-15T02:04:53.015Z,13.51
2018-05-15T02:06:03.206Z,13.46
2018-05-15T02:07:13.538Z,13.52
2018-05-15T02:08:23.766Z,13.52
2018-05-15T02:09:33.915Z,13.51
2018-05-15T02:10:44.110Z,13.49
2018-05-15T02:11:53.990Z,13.46
2018-05-15T02:13:04.157Z,13.52
2018-05-15T02:14:14.052Z,13.58
2018-05-15T02:15:24.201Z,13.54
2018-05-15T02:16:34.328Z,13.52
2018-05-15T02:17:44.183Z,13.54
2018-05-15T02:18:54.382Z,13.49
2018-05-15T02:20:04.565Z,13.51
2018-05-15T02:21:14.758Z,13.38
2018-05-15T02:22:25.040Z,13.41
2018-05-15T02:23:35.177Z,13.41
2018-05-15T02:24:45.072Z,13.44
2018-05-15T02:25:55.198Z,13.41
2018-05-15T02:27:05.429Z,13.37
2018-05-15T02:28:15.636Z,13.33
2018-05-15T02:29:25.826Z,13.33
2018-05-15T02:30:36.224Z,13.38
2018-05-15T02:31:46.408Z,13.33
2018-05-15T02:32:56.625Z,13.37
2018-05-15T02:34:06.816Z,13.36
2018-05-15T02:35:16.600Z,13.26
2018-05-15T02:36:26.516Z,13.21
2018-05-15T02:37:36.471Z,13.16
2018-05-15T02:38:46.627Z,13.15
2018-05-15T02:39:56.510Z,13.16
2018-05-15T02:41:06.656Z,13.09
2018-05-15T02:42:16.787Z,13.12
2018-05-15T02:43:26.922Z,13.09
2018-05-15T02:44:37.139Z,13.16
2018-05-15T02:45:47.335Z,13.16
2018-05-15T02:46:57.483Z,13.12
2018-05-15T02:48:07.742Z,13.15
2018-05-15T02:49:17.979Z,13.16
2018-05-15T02:50:28.136Z,13.13
2018-05-15T02:51:38.311Z,13.16
2018-05-15T02:52:48.349Z,13.06
2018-05-15T02:53:58.483Z,13.04
2018-05-15T02:55:08.719Z,13.09
2018-05-15T02:56:18.214Z,12.96
2018-05-15T02:57:28.351Z,12.96
2018-05-15T02:58:38.388Z,12.96
2018-05-15T02:59:48.557Z,12.97
2018-05-15T03:00:58.441Z,12.97
2018-05-15T03:02:08.562Z,12.92
2018-05-15T03:03:18.728Z,12.92
2018-05-15T03:04:28.680Z,12.92
2018-05-15T03:05:38.815Z,12.95
2018-05-15T03:06:48.728Z,12.85
2018-05-15T03:07:58.879Z,12.89
2018-05-15T03:09:09.013Z,12.93
2018-05-15T03:10:19.204Z,12.89
2018-05-15T03:11:29.350Z,12.84
2018-05-15T03:12:39.617Z,12.82
2018-05-15T03:13:49.494Z,12.84
2018-05-15T03:14:59.661Z,12.8
2018-05-15T03:16:09.859Z,12.82
2018-05-15T03:17:19.747Z,12.78
2018-05-15T03:18:29.618Z,12.78
2018-05-15T03:19:39.570Z,12.82
2018-05-15T03:20:49.727Z,12.81
2018-05-15T03:21:59.878Z,12.77
2018-05-15T03:23:10.128Z,12.74
2018-05-15T03:24:20.015Z,12.71
2018-05-15T03:25:30.170Z,12.68
2018-05-15T03:26:40.293Z,12.75
2018-05-15T03:27:50.460Z,12.71
2018-05-15T03:29:00.685Z,12.64
2018-05-15T03:30:10.873Z,12.62
2018-05-15T03:31:21.098Z,12.66
2018-05-15T03:32:31.296Z,12.62
2018-05-15T03:33:41.439Z,12.59
2018-05-15T03:34:51.565Z,12.59
2018-05-15T03:36:01.694Z,12.64
2018-05-15T03:37:11.859Z,12.64
2018-05-15T03:38:22.003Z,12.62
2018-05-15T03:39:32.160Z,12.64
2018-05-15T03:40:42.284Z,12.63
2018-05-15T03:41:52.443Z,12.62
2018-05-15T03:43:02.702Z,12.64
2018-05-15T03:44:44.845Z,12.68
2018-05-15T03:45:55.013Z,12.68
2018-05-15T03:47:05.146Z,12.68
2018-05-15T03:48:15.331Z,12.59
2018-05-15T03:49:25.498Z,12.66
2018-05-15T03:50:35.653Z,12.63
2018-05-15T03:51:45.820Z,12.74
2018-05-15T03:52:55.686Z,12.72
2018-05-15T03:54:05.815Z,12.66
2018-05-15T03:55:15.690Z,12.62
2018-05-15T03:56:25.830Z,12.57
2018-05-15T03:57:35.951Z,12.64
2018-05-15T03:58:46.115Z,12.63
2018-05-15T03:59:56.280Z,12.63
2018-05-15T04:01:06.477Z,12.63
2018-05-15T04:02:16.441Z,12.62
2018-05-15T04:03:26.711Z,12.62
2018-05-15T04:04:37.128Z,12.68
2018-05-15T04:05:47.413Z,12.63
2018-05-15T04:06:57.558Z,12.66
2018-05-15T04:08:07.434Z,12.64
2018-05-15T04:09:17.653Z,12.72
2018-05-15T04:10:27.783Z,12.81
2018-05-15T04:11:37.904Z,12.78
2018-05-15T04:12:48.101Z,12.84
2018-05-15T04:13:58.075Z,12.9
2018-05-15T04:15:07.845Z,12.81
2018-05-15T04:16:18.001Z,12.84
2018-05-15T04:17:27.905Z,12.97
2018-05-15T04:18:38.074Z,12.97
2018-05-15T04:19:48.229Z,12.92
2018-05-15T04:20:58.446Z,13.04
2018-05-15T04:22:08.058Z,13.11
2018-05-15T04:23:18.238Z,13.01
2018-05-15T04:24:28.436Z,12.92
2018-05-15T04:25:38.596Z,13.01
2018-05-15T04:26:48.807Z,12.97
2018-05-15T04:27:59.152Z,13.03
2018-05-15T04:29:09.490Z,13.01
2018-05-15T04:30:19.671Z,13.08
2018-05-15T04:31:29.804Z,12.95
2018-05-15T04:32:39.937Z,12.89
2018-05-15T04:33:49.880Z,12.93
2018-05-15T04:35:00.205Z,12.92
2018-05-15T04:36:10.347Z,12.8
2018-05-15T04:37:20.594Z,12.82
2018-05-15T04:38:30.217Z,12.81
2018-05-15T04:39:40.380Z,12.85
2018-05-15T04:40:50.632Z,12.81
2018-05-15T04:42:00.878Z,12.9
2018-05-15T04:43:11.129Z,12.97
2018-05-15T04:44:21.278Z,12.97
2018-05-15T04:45:31.472Z,12.95
2018-05-15T04:46:41.624Z,13
2018-05-15T04:47:51.771Z,12.92
2018-05-15T04:49:01.390Z,13.03
2018-05-15T04:50:10.382Z,13.01
2018-05-15T04:51:20.286Z,13.03
2018-05-15T04:52:30.448Z,13.06
2018-05-15T04:53:40.668Z,13
2018-05-15T04:54:50.556Z,13.04
2018-05-15T04:56:00.779Z,13.09
2018-05-15T04:57:10.954Z,13.04
2018-05-15T04:58:21.137Z,13.12
2018-05-15T04:59:31.313Z,13.19
2018-05-15T05:00:41.479Z,13.21
2018-05-15T05:01:51.655Z,13.29
2018-05-15T05:03:01.605Z,13.34
2018-05-15T05:04:11.743Z,13.4
2018-05-15T05:05:21.656Z,13.37
2018-05-15T05:06:31.800Z,13.45
2018-05-15T05:07:41.688Z,13.55
2018-05-15T05:08:51.819Z,13.51
2018-05-15T05:10:01.960Z,13.56
2018-05-15T05:11:12.097Z,13.63
2018-05-15T05:12:22.284Z,13.56
2018-05-15T05:13:32.297Z,13.69
2018-05-15T05:14:42.434Z,13.55
2018-05-15T05:15:52.572Z,13.58
2018-05-15T05:17:02.735Z,13.64
2018-05-15T05:18:12.919Z,13.59
2018-05-15T05:19:23.064Z,13.59
2018-05-15T05:20:33.249Z,13.7
2018-05-15T05:21:43.497Z,13.71
2018-05-15T05:22:53.687Z,13.69
2018-05-15T05:24:03.816Z,13.84
2018-05-15T05:25:13.962Z,13.82
2018-05-15T05:26:23.636Z,13.85
2018-05-15T05:27:33.768Z,13.85
2018-05-15T05:28:43.902Z,13.99
2018-05-15T05:29:53.796Z,14.02
2018-05-15T05:31:03.917Z,14.11
2018-05-15T05:32:14.145Z,14.13
2018-05-15T05:33:24.596Z,14.13
2018-05-15T05:34:34.964Z,14.19
2018-05-15T05:35:45.175Z,14.14
2018-05-15T05:36:55.075Z,14.16
2018-05-15T05:38:05.207Z,14.09
2018-05-15T05:39:15.426Z,14.16
2018-05-15T05:40:25.671Z,14.14
2018-05-15T05:41:35.864Z,14.21
2018-05-15T05:42:46.064Z,14.22
2018-05-15T05:43:56.297Z,14.22
2018-05-15T05:45:06.530Z,14.25
2018-05-15T05:46:16.774Z,14.22
2018-05-15T05:47:27.117Z,14.37
2018-05-15T05:48:37.237Z,14.47
2018-05-15T05:49:46.870Z,14.48
2018-05-15T05:50:57.073Z,14.52
2018-05-15T05:52:07.517Z,14.56
2018-05-15T05:53:17.695Z,14.6
2018-05-15T05:54:27.853Z,14.56
2018-05-15T05:55:37.730Z,14.52
2018-05-15T05:56:47.893Z,14.56
2018-05-15T05:57:58.114Z,14.66
2018-05-15T05:59:08.003Z,14.69
2018-05-15T06:00:18.132Z,14.66
2018-05-15T06:01:28.013Z,14.66
2018-05-15T06:02:38.138Z,14.66
2018-05-15T06:03:48.299Z,14.72
2018-05-15T06:04:58.446Z,14.8
2018-05-15T06:06:08.580Z,14.87
2018-05-15T06:07:18.823Z,15.03
2018-05-15T06:08:28.744Z,14.95
2018-05-15T06:09:38.921Z,15.05
2018-05-15T06:10:49.047Z,15.13
2018-05-15T06:11:58.932Z,15.09
2018-05-15T06:13:08.908Z,15.09
2018-05-15T06:14:19.275Z,15.14
2018-05-15T06:15:29.488Z,15.09
2018-05-15T06:16:39.699Z,15.14
2018-05-15T06:17:49.828Z,15.11
2018-05-15T06:18:59.802Z,15.14
2018-05-15T06:20:09.726Z,15.2
2018-05-15T06:21:19.597Z,15.2
2018-05-15T06:22:29.214Z,15.24
2018-05-15T06:23:39.110Z,15.27
2018-05-15T06:24:48.623Z,15.27
2018-05-15T06:25:58.850Z,15.3
2018-05-15T06:27:08.772Z,15.3
2018-05-15T06:28:18.943Z,15.39
2018-05-15T06:29:28.574Z,15.39
2018-05-15T06:30:38.458Z,15.4
2018-05-15T06:31:48.336Z,15.45
2018-05-15T06:32:58.468Z,15.54
2018-05-15T06:34:08.376Z,15.57
2018-05-15T06:35:18.575Z,15.57
2018-05-15T06:36:28.823Z,15.63
2018-05-15T06:37:39.045Z,15.55
2018-05-15T06:38:49.329Z,15.61
2018-05-15T06:39:59.523Z,15.75
2018-05-15T06:41:09.775Z,15.69
2018-05-15T06:42:19.930Z,15.73
2018-05-15T06:43:30.080Z,15.75
2018-05-15T06:44:40.382Z,15.7
2018-05-15T06:45:50.543Z,15.76
2018-05-15T06:47:00.714Z,15.78
2018-05-15T06:48:10.597Z,15.82
2018-05-15T06:49:20.779Z,15.79
2018-05-15T06:50:30.939Z,15.8
2018-05-15T06:51:41.094Z,15.84
2018-05-15T06:52:50.955Z,15.89
2018-05-15T06:54:01.211Z,15.99
2018-05-15T06:55:11.414Z,16.02
2018-05-15T06:56:21.728Z,16.1
2018-05-15T06:57:31.656Z,16.14
2018-05-15T06:58:41.834Z,16.07
2018-05-15T06:59:51.978Z,16.19
2018-05-15T07:01:02.228Z,16.28
2018-05-15T07:02:12.160Z,16.38
2018-05-15T07:03:22.309Z,16.46
2018-05-15T07:04:32.206Z,16.47
2018-05-15T07:05:42.341Z,16.49
2018-05-15T07:06:52.513Z,16.38
2018-05-15T07:08:02.686Z,16.43
2018-05-15T07:09:12.859Z,16.42
2018-05-15T07:10:23.008Z,16.39
2018-05-15T07:11:33.213Z,16.39
2018-05-15T07:12:42.980Z,16.5
2018-05-15T07:13:53.155Z,16.53
2018-05-15T07:15:03.160Z,16.66
2018-05-15T07:16:13.165Z,16.61
2018-05-15T07:17:23.047Z,16.75
2018-05-15T07:18:33.169Z,16.74
2018-05-15T07:19:43.309Z,16.8
2018-05-15T07:20:53.567Z,16.9
2018-05-15T07:22:03.717Z,16.93
2018-05-15T07:23:13.597Z,16.93
2018-05-15T07:24:23.475Z,17.08
2018-05-15T07:25:33.397Z,17.04
2018-05-15T07:26:43.593Z,17.05
2018-05-15T07:27:53.830Z,17.06
2018-05-15T07:29:04.000Z,17.11
2018-05-15T07:30:14.130Z,17.08
2018-05-15T07:31:24.285Z,17.08
2018-05-15T07:32:34.445Z,17.09
2018-05-15T07:33:44.601Z,17.17
2018-05-15T07:34:54.416Z,17.19
2018-05-15T07:36:04.554Z,17.23
2018-05-15T07:37:14.766Z,17.24
2018-05-15T07:38:24.946Z,17.38
2018-05-15T07:39:35.133Z,17.36
2018-05-15T07:40:45.316Z,17.46
2018-05-15T07:41:55.513Z,17.43
2018-05-15T07:43:05.996Z,17.46
2018-05-15T07:44:16.183Z,17.43
2018-05-15T07:45:27.320Z,17.46
2018-05-15T07:46:37.469Z,17.57
2018-05-15T07:47:47.643Z,17.55
2018-05-15T07:48:57.811Z,17.61
2018-05-15T07:50:07.988Z,17.57
2018-05-15T07:51:18.199Z,17.67
2018-05-15T07:52:28.340Z,17.68
2018-05-15T07:53:38.804Z,17.72
2018-05-15T07:54:48.809Z,17.7
2018-05-15T07:55:58.966Z,17.82
2018-05-15T07:57:09.115Z,17.89
2018-05-15T07:58:19.283Z,17.94
2018-05-15T07:59:29.461Z,17.95
2018-05-15T08:00:39.710Z,17.92
2018-05-15T08:01:49.881Z,18.05
2018-05-15T08:03:00.020Z,18.1
2018-05-15T08:04:10.181Z,18.25
2018-05-15T08:05:20.379Z,18.42
2018-05-15T08:06:30.598Z,18.44
2018-05-15T08:07:40.775Z,18.52
2018-05-15T08:08:50.948Z,18.67
2018-05-15T08:10:01.142Z,18.82
2018-05-15T08:11:11.011Z,18.94
2018-05-15T08:12:21.295Z,19.13
2018-05-15T08:13:31.480Z,19.15
2018-05-15T08:14:41.706Z,19.33
2018-05-15T08:15:51.943Z,19.34
2018-05-15T08:17:02.166Z,19.5
2018-05-15T08:18:12.333Z,19.65
2018-05-15T08:19:22.496Z,19.68
2018-05-15T08:20:32.873Z,19.82
2018-05-15T08:21:43.204Z,19.97
2018-05-15T08:22:53.339Z,20.04
2018-05-15T08:24:03.522Z,20.26
2018-05-15T08:25:13.737Z,20.39
2018-05-15T08:26:23.958Z,20.45
2018-05-15T08:27:34.179Z,20.6
2018-05-15T08:28:44.343Z,20.72
2018-05-15T08:29:54.503Z,20.79
2018-05-15T08:31:04.493Z,20.82
2018-05-15T08:32:14.657Z,21.01
2018-05-15T08:33:24.604Z,21.13
2018-05-15T08:34:34.813Z,21.25
2018-05-15T08:35:44.982Z,21.33
2018-05-15T08:36:55.150Z,21.6
2018-05-15T08:38:05.331Z,21.93
2018-05-15T08:39:15.556Z,22.33
2018-05-15T08:40:25.486Z,22.68
2018-05-15T08:41:35.669Z,23.18
2018-05-15T08:42:45.847Z,23.4
2018-05-15T08:43:55.631Z,23.7
2018-05-15T08:45:05.511Z,24.07
2018-05-15T08:46:15.772Z,24.16
2018-05-15T08:47:26.047Z,24.31
2018-05-15T08:48:35.961Z,24.75
2018-05-15T08:49:46.098Z,24.97
2018-05-15T08:50:56.285Z,25.18
2018-05-15T08:52:06.711Z,25.31
2018-05-15T08:53:16.592Z,25.39
2018-05-15T08:54:26.918Z,25.5
2018-05-15T08:55:37.191Z,25.56
2018-05-15T08:56:47.374Z,25.64
2018-05-15T08:57:57.278Z,25.65
2018-05-15T08:59:07.419Z,25.64
2018-05-15T09:00:17.723Z,25.74
2018-05-15T09:01:27.866Z,25.66
2018-05-15T09:02:37.887Z,25.54
2018-05-15T09:03:48.046Z,25.37
2018-05-15T09:04:58.249Z,25.25
2018-05-15T09:06:08.503Z,25.21
2018-05-15T09:07:18.659Z,25.18
2018-05-15T09:08:28.831Z,25.27
2018-05-15T09:09:39.038Z,25.37
2018-05-15T09:10:49.221Z,25.61
2018-05-15T09:11:59.403Z,25.71
2018-05-15T09:13:09.559Z,25.93
2018-05-15T09:14:19.733Z,26.18
2018-05-15T09:15:29.634Z,26.24
2018-05-15T09:16:39.799Z,26.36
2018-05-15T09:17:50.024Z,26.41
2018-05-15T09:19:00.207Z,26.51
2018-05-15T09:20:10.353Z,26.56
2018-05-15T09:21:20.571Z,26.75
2018-05-15T09:22:30.278Z,26.92
2018-05-15T09:23:40.545Z,27.19
2018-05-15T09:24:50.750Z,27.39
2018-05-15T09:26:00.968Z,27.34
2018-05-15T09:27:10.619Z,27.28
2018-05-15T09:28:20.780Z,27.11
2018-05-15T09:29:31.060Z,27.07
2018-05-15T09:30:41.271Z,26.95
2018-05-15T09:31:51.464Z,26.77
2018-05-15T09:33:01.386Z,26.61
2018-05-15T09:34:11.539Z,26.49
2018-05-15T09:35:21.725Z,26.37
2018-05-15T09:36:32.145Z,26.37
2018-05-15T09:37:42.321Z,26.4
2018-05-15T09:38:52.131Z,26.52
2018-05-15T09:40:02.300Z,26.64
2018-05-15T09:41:12.478Z,26.93
2018-05-15T09:42:22.641Z,27.01
2018-05-15T09:43:32.893Z,27.08
2018-05-15T09:44:43.047Z,27.26
2018-05-15T09:45:53.243Z,27.49
2018-05-15T09:47:03.370Z,27.67
2018-05-15T09:48:14.152Z,27.71
2018-05-15T09:49:24.041Z,27.98
2018-05-15T09:50:34.265Z,28.14
2018-05-15T09:51:45.867Z,28.14
2018-05-15T09:52:56.081Z,28.34
2018-05-15T09:54:06.321Z,28.5
2018-05-15T09:55:16.549Z,28.73
2018-05-15T09:56:26.798Z,28.77
2018-05-15T09:57:37.002Z,29.09
2018-05-15T09:58:47.183Z,29.31
2018-05-15T09:59:57.438Z,29.54
2018-05-15T10:01:07.659Z,29.67
2018-05-15T10:02:17.829Z,29.89
2018-05-15T10:03:28.020Z,29.84
2018-05-15T10:04:38.602Z,29.94
2018-05-15T10:05:48.784Z,29.92
2018-05-15T10:06:59.745Z,29.99
2018-05-15T10:08:10.563Z,30.03
2018-05-15T10:09:21.116Z,30.03
2018-05-15T10:10:31.397Z,29.91
2018-05-15T10:11:41.567Z,29.66
2018-05-15T10:12:51.481Z,29.48
2018-05-15T10:14:01.416Z,29.36
2018-05-15T10:15:11.818Z,29.29
2018-05-15T10:16:22.033Z,29.09
2018-05-15T10:17:32.212Z,29.09
2018-05-15T10:18:42.409Z,28.96
2018-05-15T10:19:52.603Z,28.91
2018-05-15T10:21:02.876Z,28.81
2018-05-15T10:22:12.781Z,28.89
2018-05-15T10:23:22.877Z,28.92
2018-05-15T10:24:33.050Z,28.87
2018-05-15T10:25:43.309Z,28.91
2018-05-15T10:26:53.526Z,28.96
2018-05-15T10:28:03.740Z,28.98
2018-05-15T10:29:13.956Z,28.91
2018-05-15T10:30:24.144Z,28.94
2018-05-15T10:31:34.387Z,28.94
2018-05-15T10:32:44.614Z,28.88
2018-05-15T10:33:54.525Z,28.92
2018-05-15T10:35:04.699Z,28.67
2018-05-15T10:36:14.634Z,28.51
2018-05-15T10:37:24.997Z,28.42
2018-05-15T10:38:35.450Z,28.34
2018-05-15T10:39:45.639Z,28.34
2018-05-15T10:40:55.797Z,28.45
2018-05-15T10:42:05.993Z,28.32
2018-05-15T10:43:16.171Z,28.22
2018-05-15T10:44:26.085Z,28
2018-05-15T10:45:36.290Z,27.9
2018-05-15T10:46:46.461Z,27.85
2018-05-15T10:47:56.661Z,27.85
2018-05-15T10:49:06.848Z,28.01
2018-05-15T10:50:17.022Z,27.92
2018-05-15T10:51:27.196Z,27.76
2018-05-15T10:52:37.407Z,27.61
2018-05-15T10:53:47.671Z,27.7
2018-05-15T10:54:57.862Z,27.64
2018-05-15T10:56:08.048Z,27.68
2018-05-15T10:57:18.248Z,27.7
2018-05-15T10:58:28.466Z,27.61
2018-05-15T10:59:38.659Z,27.45
2018-05-15T11:00:49.037Z,27.41
2018-05-15T11:01:59.217Z,27.1
2018-05-15T11:03:09.398Z,26.98
2018-05-15T11:04:19.968Z,26.92
2018-05-15T11:05:29.976Z,26.52
2018-05-15T11:06:39.926Z,26.29
2018-05-15T11:07:50.073Z,26.16
2018-05-15T11:09:00.255Z,25.93
2018-05-15T11:10:10.436Z,25.76
2018-05-15T11:11:20.627Z,25.82
2018-05-15T11:12:30.802Z,25.68
2018-05-15T11:13:41.586Z,25.73
2018-05-15T11:14:51.795Z,25.78
2018-05-15T11:16:01.825Z,25.68
2018-05-15T11:17:11.637Z,25.66
2018-05-15T11:18:21.851Z,25.58
2018-05-15T11:19:32.021Z,25.62
2018-05-15T11:20:42.202Z,25.68
2018-05-15T11:21:52.428Z,25.87
2018-05-15T11:23:02.650Z,25.99
2018-05-15T11:24:12.814Z,26.18
2018-05-15T11:25:23.000Z,26.22
2018-05-15T11:26:33.176Z,26.29
2018-05-15T11:27:43.370Z,26.29
2018-05-15T11:28:53.555Z,26.14
2018-05-15T11:30:03.725Z,26.21
2018-05-15T11:31:13.926Z,26.36
2018-05-15T11:32:24.089Z,26.49
2018-05-15T11:33:34.272Z,26.56
2018-05-15T11:34:44.441Z,26.64
2018-05-15T11:35:55.702Z,26.74
2018-05-15T11:37:06.314Z,26.64
2018-05-15T11:38:16.511Z,26.55
2018-05-15T11:39:26.697Z,26.73
2018-05-15T11:40:36.502Z,26.78
2018-05-15T11:41:46.942Z,26.64
2018-05-15T11:42:56.357Z,26.66
2018-05-15T11:44:06.547Z,26.61
2018-05-15T11:45:16.789Z,26.53
2018-05-15T11:46:26.623Z,26.41
2018-05-15T11:47:37.396Z,26.31
2018-05-15T11:48:50.809Z,26.21
2018-05-15T11:50:06.778Z,26.15
2018-05-15T11:51:21.584Z,25.96
2018-05-15T11:52:37.097Z,25.85
2018-05-15T11:53:49.609Z,25.68
2018-05-15T11:54:59.849Z,25.44
2018-05-15T11:56:09.855Z,25.29
2018-05-15T11:57:20.079Z,25.21
2018-05-15T11:58:29.701Z,25.06
2018-05-15T11:59:40.096Z,24.88
2018-05-15T12:00:50.495Z,24.63
2018-05-15T12:02:00.643Z,24.4
2018-05-15T12:03:10.597Z,24.19
2018-05-15T12:04:20.868Z,23.95
2018-05-15T12:05:31.110Z,23.73
2018-05-15T12:06:41.496Z,23.57
2018-05-15T12:07:51.699Z,23.46
2018-05-15T12:09:02.131Z,23.38
2018-05-15T12:10:12.361Z,23.32
2018-05-15T12:11:22.563Z,23.2
2018-05-15T12:12:32.954Z,23.18
2018-05-15T12:13:43.239Z,23.03
2018-05-15T12:14:53.469Z,22.98
2018-05-15T12:16:03.952Z,22.86
2018-05-15T12:17:14.201Z,22.79
2018-05-15T12:18:24.582Z,22.63
2018-05-15T12:19:34.814Z,22.52
2018-05-15T12:20:44.969Z,22.5
2018-05-15T12:21:54.775Z,22.55
2018-05-15T12:23:04.962Z,22.57
2018-05-15T12:24:15.228Z,22.5
2018-05-15T12:25:25.451Z,22.65
2018-05-15T12:26:35.735Z,22.6
2018-05-15T12:27:48.314Z,22.53
2018-05-15T12:28:57.840Z,22.58
2018-05-15T12:30:07.865Z,22.68
2018-05-15T12:31:18.990Z,22.78
2018-05-15T12:32:29.171Z,22.9
2018-05-15T12:33:39.321Z,22.86
2018-05-15T12:34:49.503Z,22.96
2018-05-15T12:35:59.887Z,23.03
2018-05-15T12:37:10.108Z,23.11
2018-05-15T12:38:20.303Z,23.05
2018-05-15T12:39:30.533Z,23.05
2018-05-15T12:40:40.733Z,23.11
2018-05-15T12:41:51.198Z,23.17
2018-05-15T12:43:02.225Z,23.18
2018-05-15T12:44:12.424Z,23.2
2018-05-15T12:45:22.589Z,23.32
2018-05-15T12:46:32.788Z,23.4
2018-05-15T12:47:43.129Z,23.53
2018-05-15T12:48:53.660Z,23.64
2018-05-15T12:50:03.951Z,23.7
2018-05-15T12:51:14.152Z,23.64
2018-05-15T12:52:24.394Z,23.77
2018-05-15T12:53:34.623Z,23.83
2018-05-15T12:54:44.927Z,23.87
2018-05-15T12:55:55.171Z,23.88
2018-05-15T12:57:05.435Z,23.77
2018-05-15T12:58:15.630Z,23.85
2018-05-15T12:59:25.831Z,23.85
2018-05-15T13:00:36.121Z,23.91
2018-05-15T13:01:46.476Z,23.9
2018-05-15T13:02:56.938Z,23.92
2018-05-15T13:04:07.213Z,23.77
2018-05-15T13:05:17.175Z,23.8
2018-05-15T13:06:27.326Z,23.8
2018-05-15T13:07:37.645Z,23.76
2018-05-15T13:08:48.014Z,23.63
2018-05-15T13:09:58.228Z,23.8
2018-05-15T13:11:08.405Z,23.8
2018-05-15T13:12:18.329Z,23.76
2018-05-15T13:13:28.487Z,23.63
2018-05-15T13:14:38.644Z,23.76
2018-05-15T13:15:48.567Z,23.69
2018-05-15T13:16:58.722Z,23.82
2018-05-15T13:18:08.946Z,23.65
2018-05-15T13:19:19.206Z,23.7
2018-05-15T13:20:29.183Z,23.72
2018-05-15T13:21:39.334Z,23.58
2018-05-15T13:22:49.275Z,23.58
2018-05-15T13:23:59.559Z,23.54
2018-05-15T13:25:09.794Z,23.51
2018-05-15T13:26:20.017Z,23.4
2018-05-15T13:27:30.221Z,23.46
2018-05-15T13:28:41.386Z,23.4
2018-05-15T13:29:51.319Z,23.46
2018-05-15T13:31:01.761Z,23.43
2018-05-15T13:32:12.003Z,23.39
2018-05-15T13:33:22.233Z,23.48
2018-05-15T13:34:32.037Z,23.48
2018-05-15T13:35:41.990Z,23.57
2018-05-15T13:36:52.241Z,23.57
2018-05-15T13:38:02.565Z,23.51
2018-05-15T13:39:12.500Z,23.53
2018-05-15T13:40:22.658Z,23.65
2018-05-15T13:41:32.913Z,23.54
2018-05-15T13:42:43.071Z,23.57
2018-05-15T13:43:52.987Z,23.54
2018-05-15T13:45:02.916Z,23.54
2018-05-15T13:46:13.166Z,23.51
2018-05-15T13:47:23.359Z,23.43
2018-05-15T13:48:33.559Z,23.51
2018-05-15T13:49:43.741Z,23.46
2018-05-15T13:50:54.016Z,23.36
2018-05-15T13:52:04.308Z,23.36
2018-05-15T13:53:14.605Z,23.39
2018-05-15T13:54:24.807Z,23.31
2018-05-15T13:55:34.975Z,23.35
2018-05-15T13:56:45.171Z,23.35
2018-05-15T13:57:55.383Z,23.32
2018-05-15T13:59:05.181Z,23.35
2018-05-15T14:00:15.459Z,23.31
2018-05-15T14:01:25.741Z,23.18
2018-05-15T14:02:35.932Z,23.23
2018-05-15T14:03:45.821Z,23.21
2018-05-15T14:04:55.991Z,23.18
2018-05-15T14:06:06.262Z,23.14
2018-05-15T14:07:16.424Z,23.08
2018-05-15T14:08:26.609Z,23.02
2018-05-15T14:09:36.761Z,23.02
2018-05-15T14:10:46.959Z,23.03
2018-05-15T14:11:57.114Z,22.9
2018-05-15T14:13:07.305Z,22.86
2018-05-15T14:14:18.467Z,22.86
2018-05-15T14:15:28.721Z,22.9
2018-05-15T14:16:38.387Z,22.83
2018-05-15T14:17:48.576Z,22.82
2018-05-15T14:18:58.901Z,22.73
2018-05-15T14:20:09.206Z,22.68
2018-05-15T14:21:19.456Z,22.68
2018-05-15T14:22:29.648Z,22.68
2018-05-15T14:23:39.884Z,22.68
2018-05-15T14:24:49.901Z,22.65
2018-05-15T14:26:00.258Z,22.76
2018-05-15T14:27:10.246Z,22.76
2018-05-15T14:28:20.424Z,22.73
2018-05-15T14:29:30.604Z,22.68
2018-05-15T14:30:40.749Z,22.75
2018-05-15T14:31:50.923Z,22.71
2018-05-15T14:33:01.105Z,22.64
2018-05-15T14:34:10.840Z,22.67
2018-05-15T14:35:21.113Z,22.65
2018-05-15T14:36:31.381Z,22.61
2018-05-15T14:37:41.570Z,22.63
2018-05-15T14:38:51.773Z,22.53
2018-05-15T14:40:01.969Z,22.6
2018-05-15T14:41:12.160Z,22.53
2018-05-15T14:42:22.517Z,22.52
2018-05-15T14:43:32.705Z,22.52
2018-05-15T14:44:42.535Z,22.53
2018-05-15T14:45:52.685Z,22.53
2018-05-15T14:47:02.915Z,22.53
2018-05-15T14:48:13.115Z,22.53
2018-05-15T14:49:23.279Z,22.45
2018-05-15T14:50:33.450Z,22.48
2018-05-15T14:51:43.625Z,22.43
2018-05-15T14:52:53.834Z,22.4
2018-05-15T14:54:03.474Z,22.34
2018-05-15T14:55:13.652Z,22.35
2018-05-15T14:56:23.826Z,22.3
2018-05-15T14:57:33.979Z,22.38
2018-05-15T14:58:44.138Z,22.35
2018-05-15T14:59:54.304Z,22.35
2018-05-15T15:01:04.491Z,22.33
2018-05-15T15:02:14.709Z,22.23
2018-05-15T15:03:24.932Z,22.16
2018-05-15T15:04:35.098Z,22.13
2018-05-15T15:05:45.012Z,22.03
2018-05-15T15:06:55.195Z,21.88
2018-05-15T15:08:04.791Z,21.76